sensor_id;sensor_type;location;lat;lon;timestamp;P1;durP1;ratioP1;P2;durP2;ratioP2
77451;SDS011;66537;52.370;4.832;2023-04-16T00:02:17;16.98;;;4.70;;
77451;SDS011;66537;52.370;4.832;2023-04-16T00:04:43;15.40;;;4.10;;
77451;SDS011;66537;52.370;4.832;2023-04-16T00:07:08;9.87;;;4.03;;
77451;SDS011;66537;52.370;4.832;2023-04-16T00:09:33;17.63;;;5.38;;
77451;SDS011;66537;52.370;4.832;2023-04-16T00:11:59;14.57;;;4.03;;
77451;SDS011;66537;52.370;4.832;2023-04-16T00:14:24;15.55;;;4.38;;
77451;SDS011;66537;52.370;4.832;2023-04-16T00:16:49;18.10;;;4.38;;
77451;SDS011;66537;52.370;4.832;2023-04-16T00:19:15;13.40;;;4.60;;
77451;SDS011;66537;52.370;4.832;2023-04-16T00:21:40;15.33;;;4.20;;
77451;SDS011;66537;52.370;4.832;2023-04-16T00:24:05;18.83;;;5.20;;
77451;SDS011;66537;52.370;4.832;2023-04-16T00:26:31;18.02;;;5.50;;
77451;SDS011;66537;52.370;4.832;2023-04-16T00:28:56;15.02;;;5.00;;
77451;SDS011;66537;52.370;4.832;2023-04-16T00:31:25;13.20;;;4.07;;
77451;SDS011;66537;52.370;4.832;2023-04-16T00:33:55;13.15;;;4.22;;
77451;SDS011;66537;52.370;4.832;2023-04-16T00:36:21;16.35;;;4.40;;
77451;SDS011;66537;52.370;4.832;2023-04-16T00:38:48;13.57;;;4.07;;
77451;SDS011;66537;52.370;4.832;2023-04-16T00:41:13;15.75;;;4.18;;
77451;SDS011;66537;52.370;4.832;2023-04-16T00:43:38;15.35;;;3.92;;
77451;SDS011;66537;52.370;4.832;2023-04-16T00:46:04;15.23;;;3.50;;
77451;SDS011;66537;52.370;4.832;2023-04-16T00:48:31;12.15;;;4.00;;
77451;SDS011;66537;52.370;4.832;2023-04-16T00:50:58;12.45;;;3.53;;
77451;SDS011;66537;52.370;4.832;2023-04-16T00:53:25;19.45;;;5.00;;
77451;SDS011;66537;52.370;4.832;2023-04-16T00:55:50;14.55;;;3.58;;
77451;SDS011;66537;52.370;4.832;2023-04-16T00:58:16;16.80;;;3.92;;
77451;SDS011;66537;52.370;4.832;2023-04-16T01:00:41;13.43;;;4.18;;
77451;SDS011;66537;52.370;4.832;2023-04-16T01:03:07;15.60;;;3.60;;
77451;SDS011;66537;52.370;4.832;2023-04-16T01:05:34;12.93;;;3.83;;
77451;SDS011;66537;52.370;4.832;2023-04-16T01:08:00;14.25;;;3.95;;
77451;SDS011;66537;52.370;4.832;2023-04-16T01:10:25;19.90;;;4.93;;
77451;SDS011;66537;52.370;4.832;2023-04-16T01:12:50;15.77;;;4.10;;
77451;SDS011;66537;52.370;4.832;2023-04-16T01:15:16;19.60;;;4.53;;
77451;SDS011;66537;52.370;4.832;2023-04-16T01:17:43;20.42;;;4.45;;
77451;SDS011;66537;52.370;4.832;2023-04-16T01:20:10;18.73;;;4.38;;
77451;SDS011;66537;52.370;4.832;2023-04-16T01:22:35;15.90;;;3.72;;
77451;SDS011;66537;52.370;4.832;2023-04-16T01:25:01;19.13;;;4.30;;
77451;SDS011;66537;52.370;4.832;2023-04-16T01:27:26;15.63;;;3.83;;
77451;SDS011;66537;52.370;4.832;2023-04-16T01:29:51;14.70;;;4.10;;
77451;SDS011;66537;52.370;4.832;2023-04-16T01:32:17;17.67;;;4.50;;
77451;SDS011;66537;52.370;4.832;2023-04-16T01:34:42;18.13;;;3.97;;
77451;SDS011;66537;52.370;4.832;2023-04-16T01:37:07;19.40;;;3.73;;
77451;SDS011;66537;52.370;4.832;2023-04-16T01:39:33;17.33;;;4.00;;
77451;SDS011;66537;52.370;4.832;2023-04-16T01:41:58;19.20;;;4.27;;
77451;SDS011;66537;52.370;4.832;2023-04-16T01:44:23;16.10;;;4.93;;
77451;SDS011;66537;52.370;4.832;2023-04-16T01:46:49;18.23;;;4.75;;
77451;SDS011;66537;52.370;4.832;2023-04-16T01:49:15;21.35;;;4.88;;
77451;SDS011;66537;52.370;4.832;2023-04-16T01:51:40;38.90;;;6.40;;
77451;SDS011;66537;52.370;4.832;2023-04-16T01:54:06;14.90;;;3.88;;
77451;SDS011;66537;52.370;4.832;2023-04-16T01:56:31;15.07;;;3.97;;
77451;SDS011;66537;52.370;4.832;2023-04-16T01:58:57;15.93;;;3.88;;
77451;SDS011;66537;52.370;4.832;2023-04-16T02:01:22;18.53;;;4.93;;
77451;SDS011;66537;52.370;4.832;2023-04-16T02:03:48;15.48;;;3.55;;
77451;SDS011;66537;52.370;4.832;2023-04-16T02:06:13;17.20;;;4.57;;
77451;SDS011;66537;52.370;4.832;2023-04-16T02:08:39;17.02;;;4.20;;
77451;SDS011;66537;52.370;4.832;2023-04-16T02:11:05;16.42;;;3.78;;
77451;SDS011;66537;52.370;4.832;2023-04-16T02:13:31;15.88;;;4.75;;
77451;SDS011;66537;52.370;4.832;2023-04-16T02:15:56;20.88;;;4.00;;
77451;SDS011;66537;52.370;4.832;2023-04-16T02:18:22;19.40;;;4.53;;
77451;SDS011;66537;52.370;4.832;2023-04-16T02:20:47;14.90;;;4.10;;
77451;SDS011;66537;52.370;4.832;2023-04-16T02:23:13;16.15;;;4.03;;
77451;SDS011;66537;52.370;4.832;2023-04-16T02:25:45;20.48;;;3.80;;
77451;SDS011;66537;52.370;4.832;2023-04-16T02:28:12;26.65;;;4.63;;
77451;SDS011;66537;52.370;4.832;2023-04-16T02:30:39;20.30;;;3.90;;
77451;SDS011;66537;52.370;4.832;2023-04-16T02:33:05;17.95;;;3.40;;
77451;SDS011;66537;52.370;4.832;2023-04-16T02:35:32;13.98;;;4.07;;
77451;SDS011;66537;52.370;4.832;2023-04-16T02:37:58;14.00;;;4.32;;
77451;SDS011;66537;52.370;4.832;2023-04-16T02:40:24;17.92;;;3.90;;
77451;SDS011;66537;52.370;4.832;2023-04-16T02:42:50;20.92;;;4.38;;
77451;SDS011;66537;52.370;4.832;2023-04-16T02:45:15;16.58;;;4.72;;
77451;SDS011;66537;52.370;4.832;2023-04-16T02:47:41;15.25;;;3.95;;
77451;SDS011;66537;52.370;4.832;2023-04-16T02:50:06;15.90;;;3.80;;
77451;SDS011;66537;52.370;4.832;2023-04-16T02:52:32;14.60;;;4.57;;
77451;SDS011;66537;52.370;4.832;2023-04-16T02:54:57;23.33;;;4.38;;
77451;SDS011;66537;52.370;4.832;2023-04-16T02:57:23;12.82;;;4.45;;
77451;SDS011;66537;52.370;4.832;2023-04-16T02:59:48;13.17;;;3.80;;
77451;SDS011;66537;52.370;4.832;2023-04-16T03:02:14;16.73;;;4.68;;
77451;SDS011;66537;52.370;4.832;2023-04-16T03:04:40;19.02;;;3.97;;
77451;SDS011;66537;52.370;4.832;2023-04-16T03:07:05;16.38;;;4.63;;
77451;SDS011;66537;52.370;4.832;2023-04-16T03:09:31;12.50;;;4.18;;
77451;SDS011;66537;52.370;4.832;2023-04-16T03:11:57;14.45;;;4.45;;
77451;SDS011;66537;52.370;4.832;2023-04-16T03:14:22;17.00;;;4.43;;
77451;SDS011;66537;52.370;4.832;2023-04-16T03:16:47;18.33;;;4.75;;
77451;SDS011;66537;52.370;4.832;2023-04-16T03:19:13;15.97;;;4.90;;
77451;SDS011;66537;52.370;4.832;2023-04-16T03:21:38;20.97;;;4.93;;
77451;SDS011;66537;52.370;4.832;2023-04-16T03:24:03;21.13;;;5.00;;
77451;SDS011;66537;52.370;4.832;2023-04-16T03:26:29;14.98;;;4.60;;
77451;SDS011;66537;52.370;4.832;2023-04-16T03:28:54;17.63;;;4.70;;
77451;SDS011;66537;52.370;4.832;2023-04-16T03:31:19;26.60;;;5.80;;
77451;SDS011;66537;52.370;4.832;2023-04-16T03:33:48;22.13;;;5.20;;
77451;SDS011;66537;52.370;4.832;2023-04-16T03:36:13;16.67;;;5.43;;
77451;SDS011;66537;52.370;4.832;2023-04-16T03:38:38;26.40;;;6.03;;
77451;SDS011;66537;52.370;4.832;2023-04-16T03:41:04;23.13;;;6.90;;
77451;SDS011;66537;52.370;4.832;2023-04-16T03:43:29;22.77;;;7.43;;
77451;SDS011;66537;52.370;4.832;2023-04-16T03:45:54;29.85;;;6.95;;
77451;SDS011;66537;52.370;4.832;2023-04-16T03:48:20;45.17;;;7.90;;
77451;SDS011;66537;52.370;4.832;2023-04-16T03:50:45;26.65;;;8.02;;
77451;SDS011;66537;52.370;4.832;2023-04-16T03:53:12;22.25;;;7.90;;
77451;SDS011;66537;52.370;4.832;2023-04-16T03:55:37;24.65;;;7.70;;
77451;SDS011;66537;52.370;4.832;2023-04-16T03:58:02;24.47;;;9.57;;
77451;SDS011;66537;52.370;4.832;2023-04-16T04:00:28;26.83;;;9.45;;
77451;SDS011;66537;52.370;4.832;2023-04-16T04:02:54;25.70;;;9.27;;
77451;SDS011;66537;52.370;4.832;2023-04-16T04:05:20;29.95;;;9.77;;
77451;SDS011;66537;52.370;4.832;2023-04-16T04:07:45;27.42;;;9.38;;
77451;SDS011;66537;52.370;4.832;2023-04-16T04:10:10;31.57;;;10.13;;
77451;SDS011;66537;52.370;4.832;2023-04-16T04:12:36;30.57;;;8.67;;
77451;SDS011;66537;52.370;4.832;2023-04-16T04:15:01;30.57;;;9.63;;
77451;SDS011;66537;52.370;4.832;2023-04-16T04:17:26;25.92;;;10.85;;
77451;SDS011;66537;52.370;4.832;2023-04-16T04:19:52;33.53;;;10.95;;
77451;SDS011;66537;52.370;4.832;2023-04-16T04:22:18;34.08;;;10.73;;
77451;SDS011;66537;52.370;4.832;2023-04-16T04:24:43;34.25;;;11.20;;
77451;SDS011;66537;52.370;4.832;2023-04-16T04:27:08;31.40;;;10.57;;
77451;SDS011;66537;52.370;4.832;2023-04-16T04:29:34;31.85;;;10.32;;
77451;SDS011;66537;52.370;4.832;2023-04-16T04:31:59;38.00;;;10.43;;
77451;SDS011;66537;52.370;4.832;2023-04-16T04:34:25;33.80;;;10.82;;
77451;SDS011;66537;52.370;4.832;2023-04-16T04:36:50;37.60;;;11.35;;
77451;SDS011;66537;52.370;4.832;2023-04-16T04:39:15;37.90;;;10.57;;
77451;SDS011;66537;52.370;4.832;2023-04-16T04:41:41;24.92;;;8.52;;
77451;SDS011;66537;52.370;4.832;2023-04-16T04:44:06;29.38;;;9.73;;
77451;SDS011;66537;52.370;4.832;2023-04-16T04:46:31;29.33;;;9.90;;
77451;SDS011;66537;52.370;4.832;2023-04-16T04:48:57;25.00;;;8.77;;
77451;SDS011;66537;52.370;4.832;2023-04-16T04:51:22;25.40;;;8.00;;
77451;SDS011;66537;52.370;4.832;2023-04-16T04:53:48;33.70;;;8.85;;
77451;SDS011;66537;52.370;4.832;2023-04-16T04:56:13;29.00;;;8.70;;
77451;SDS011;66537;52.370;4.832;2023-04-16T04:58:39;27.13;;;8.00;;
77451;SDS011;66537;52.370;4.832;2023-04-16T05:01:05;30.13;;;9.07;;
77451;SDS011;66537;52.370;4.832;2023-04-16T05:03:30;25.40;;;8.70;;
77451;SDS011;66537;52.370;4.832;2023-04-16T05:05:56;29.08;;;9.07;;
77451;SDS011;66537;52.370;4.832;2023-04-16T05:08:21;24.70;;;9.17;;
77451;SDS011;66537;52.370;4.832;2023-04-16T05:10:46;22.13;;;8.43;;
77451;SDS011;66537;52.370;4.832;2023-04-16T05:13:12;25.00;;;8.88;;
77451;SDS011;66537;52.370;4.832;2023-04-16T05:15:37;32.20;;;9.65;;
77451;SDS011;66537;52.370;4.832;2023-04-16T05:18:02;28.80;;;9.38;;
77451;SDS011;66537;52.370;4.832;2023-04-16T05:20:28;25.97;;;9.93;;
77451;SDS011;66537;52.370;4.832;2023-04-16T05:22:53;29.75;;;11.25;;
77451;SDS011;66537;52.370;4.832;2023-04-16T05:25:19;27.85;;;9.80;;
77451;SDS011;66537;52.370;4.832;2023-04-16T05:27:45;28.73;;;9.40;;
77451;SDS011;66537;52.370;4.832;2023-04-16T05:30:10;24.42;;;9.65;;
77451;SDS011;66537;52.370;4.832;2023-04-16T05:32:37;23.58;;;8.45;;
77451;SDS011;66537;52.370;4.832;2023-04-16T05:35:03;24.35;;;8.63;;
77451;SDS011;66537;52.370;4.832;2023-04-16T05:37:29;25.98;;;10.25;;
77451;SDS011;66537;52.370;4.832;2023-04-16T05:39:55;31.90;;;10.57;;
77451;SDS011;66537;52.370;4.832;2023-04-16T05:42:20;31.70;;;9.95;;
77451;SDS011;66537;52.370;4.832;2023-04-16T05:44:45;26.73;;;10.03;;
77451;SDS011;66537;52.370;4.832;2023-04-16T05:47:10;29.63;;;9.07;;
77451;SDS011;66537;52.370;4.832;2023-04-16T05:49:36;26.50;;;9.97;;
77451;SDS011;66537;52.370;4.832;2023-04-16T05:52:02;23.53;;;9.27;;
77451;SDS011;66537;52.370;4.832;2023-04-16T05:54:28;31.27;;;10.65;;
77451;SDS011;66537;52.370;4.832;2023-04-16T05:56:53;33.60;;;10.75;;
77451;SDS011;66537;52.370;4.832;2023-04-16T05:59:18;30.87;;;11.00;;
77451;SDS011;66537;52.370;4.832;2023-04-16T06:01:44;30.00;;;11.27;;
77451;SDS011;66537;52.370;4.832;2023-04-16T06:04:09;37.70;;;12.85;;
77451;SDS011;66537;52.370;4.832;2023-04-16T06:06:35;25.55;;;8.73;;
77451;SDS011;66537;52.370;4.832;2023-04-16T06:09:01;35.50;;;10.32;;
77451;SDS011;66537;52.370;4.832;2023-04-16T06:11:28;33.20;;;10.25;;
77451;SDS011;66537;52.370;4.832;2023-04-16T06:13:54;38.30;;;12.38;;
77451;SDS011;66537;52.370;4.832;2023-04-16T06:16:19;34.42;;;10.68;;
77451;SDS011;66537;52.370;4.832;2023-04-16T06:18:45;33.67;;;9.70;;
77451;SDS011;66537;52.370;4.832;2023-04-16T06:21:10;33.33;;;9.90;;
77451;SDS011;66537;52.370;4.832;2023-04-16T06:23:36;31.58;;;9.45;;
77451;SDS011;66537;52.370;4.832;2023-04-16T06:26:01;28.70;;;8.93;;
77451;SDS011;66537;52.370;4.832;2023-04-16T06:28:27;25.67;;;9.13;;
77451;SDS011;66537;52.370;4.832;2023-04-16T06:30:52;30.43;;;9.73;;
77451;SDS011;66537;52.370;4.832;2023-04-16T06:33:17;30.73;;;9.68;;
77451;SDS011;66537;52.370;4.832;2023-04-16T06:35:43;30.40;;;9.35;;
77451;SDS011;66537;52.370;4.832;2023-04-16T06:38:08;33.17;;;9.23;;
77451;SDS011;66537;52.370;4.832;2023-04-16T06:40:33;25.63;;;8.77;;
77451;SDS011;66537;52.370;4.832;2023-04-16T06:43:01;27.52;;;9.38;;
77451;SDS011;66537;52.370;4.832;2023-04-16T06:45:26;26.25;;;9.25;;
77451;SDS011;66537;52.370;4.832;2023-04-16T06:47:52;28.93;;;9.57;;
77451;SDS011;66537;52.370;4.832;2023-04-16T06:50:17;35.08;;;9.88;;
77451;SDS011;66537;52.370;4.832;2023-04-16T06:52:43;36.55;;;9.88;;
77451;SDS011;66537;52.370;4.832;2023-04-16T06:55:08;30.08;;;9.98;;
77451;SDS011;66537;52.370;4.832;2023-04-16T06:57:34;25.58;;;10.52;;
77451;SDS011;66537;52.370;4.832;2023-04-16T07:00:00;27.35;;;10.40;;
77451;SDS011;66537;52.370;4.832;2023-04-16T07:02:25;28.40;;;10.80;;
77451;SDS011;66537;52.370;4.832;2023-04-16T07:04:50;26.35;;;8.65;;
77451;SDS011;66537;52.370;4.832;2023-04-16T07:07:16;25.33;;;10.40;;
77451;SDS011;66537;52.370;4.832;2023-04-16T07:09:42;32.80;;;10.80;;
77451;SDS011;66537;52.370;4.832;2023-04-16T07:12:07;32.53;;;11.43;;
77451;SDS011;66537;52.370;4.832;2023-04-16T07:14:33;30.30;;;10.60;;
77451;SDS011;66537;52.370;4.832;2023-04-16T07:16:58;32.30;;;10.13;;
77451;SDS011;66537;52.370;4.832;2023-04-16T07:19:23;27.43;;;9.80;;
77451;SDS011;66537;52.370;4.832;2023-04-16T07:21:49;31.83;;;10.00;;
77451;SDS011;66537;52.370;4.832;2023-04-16T07:24:15;30.75;;;10.75;;
77451;SDS011;66537;52.370;4.832;2023-04-16T07:26:41;31.48;;;8.85;;
77451;SDS011;66537;52.370;4.832;2023-04-16T07:29:06;26.20;;;9.43;;
77451;SDS011;66537;52.370;4.832;2023-04-16T07:31:31;29.30;;;9.43;;
77451;SDS011;66537;52.370;4.832;2023-04-16T07:33:57;24.63;;;9.50;;
77451;SDS011;66537;52.370;4.832;2023-04-16T07:36:23;20.55;;;7.75;;
77451;SDS011;66537;52.370;4.832;2023-04-16T07:38:48;27.80;;;8.93;;
77451;SDS011;66537;52.370;4.832;2023-04-16T07:41:13;25.47;;;8.80;;
77451;SDS011;66537;52.370;4.832;2023-04-16T07:43:39;25.90;;;8.23;;
77451;SDS011;66537;52.370;4.832;2023-04-16T07:46:04;21.25;;;8.25;;
77451;SDS011;66537;52.370;4.832;2023-04-16T07:48:30;21.13;;;7.80;;
77451;SDS011;66537;52.370;4.832;2023-04-16T07:50:55;23.67;;;8.38;;
77451;SDS011;66537;52.370;4.832;2023-04-16T07:53:21;22.60;;;7.82;;
77451;SDS011;66537;52.370;4.832;2023-04-16T07:55:46;22.80;;;7.47;;
77451;SDS011;66537;52.370;4.832;2023-04-16T07:58:12;29.97;;;9.27;;
77451;SDS011;66537;52.370;4.832;2023-04-16T08:00:37;23.37;;;8.27;;
77451;SDS011;66537;52.370;4.832;2023-04-16T08:03:03;24.83;;;7.93;;
77451;SDS011;66537;52.370;4.832;2023-04-16T08:05:28;28.48;;;9.23;;
77451;SDS011;66537;52.370;4.832;2023-04-16T08:07:54;23.20;;;8.02;;
77451;SDS011;66537;52.370;4.832;2023-04-16T08:10:20;23.85;;;8.68;;
77451;SDS011;66537;52.370;4.832;2023-04-16T08:12:45;25.42;;;8.68;;
77451;SDS011;66537;52.370;4.832;2023-04-16T08:15:11;25.60;;;7.25;;
77451;SDS011;66537;52.370;4.832;2023-04-16T08:17:36;23.65;;;7.35;;
77451;SDS011;66537;52.370;4.832;2023-04-16T08:20:02;24.45;;;8.77;;
77451;SDS011;66537;52.370;4.832;2023-04-16T08:22:28;21.27;;;7.75;;
77451;SDS011;66537;52.370;4.832;2023-04-16T08:24:53;21.95;;;7.30;;
77451;SDS011;66537;52.370;4.832;2023-04-16T08:27:19;26.55;;;8.15;;
77451;SDS011;66537;52.370;4.832;2023-04-16T08:29:44;28.95;;;9.20;;
77451;SDS011;66537;52.370;4.832;2023-04-16T08:32:09;24.87;;;8.83;;
77451;SDS011;66537;52.370;4.832;2023-04-16T08:34:35;24.90;;;8.40;;
77451;SDS011;66537;52.370;4.832;2023-04-16T08:37:01;21.83;;;7.97;;
77451;SDS011;66537;52.370;4.832;2023-04-16T08:39:27;22.40;;;7.78;;
77451;SDS011;66537;52.370;4.832;2023-04-16T08:41:52;21.75;;;7.43;;
77451;SDS011;66537;52.370;4.832;2023-04-16T08:44:20;19.17;;;7.57;;
77451;SDS011;66537;52.370;4.832;2023-04-16T08:46:55;23.00;;;7.25;;
77451;SDS011;66537;52.370;4.832;2023-04-16T08:49:22;22.27;;;7.47;;
77451;SDS011;66537;52.370;4.832;2023-04-16T08:51:49;23.98;;;7.75;;
77451;SDS011;66537;52.370;4.832;2023-04-16T08:55:05;24.20;;;8.52;;
77451;SDS011;66537;52.370;4.832;2023-04-16T08:57:10;23.70;;;7.88;;
77451;SDS011;66537;52.370;4.832;2023-04-16T08:59:40;27.20;;;9.13;;
77451;SDS011;66537;52.370;4.832;2023-04-16T09:02:09;21.83;;;8.07;;
77451;SDS011;66537;52.370;4.832;2023-04-16T09:04:36;25.70;;;10.25;;
77451;SDS011;66537;52.370;4.832;2023-04-16T09:07:02;25.40;;;9.13;;
77451;SDS011;66537;52.370;4.832;2023-04-16T09:09:29;21.63;;;8.30;;
77451;SDS011;66537;52.370;4.832;2023-04-16T09:11:58;22.13;;;8.30;;
77451;SDS011;66537;52.370;4.832;2023-04-16T09:14:23;20.08;;;8.13;;
77451;SDS011;66537;52.370;4.832;2023-04-16T09:16:49;26.45;;;9.73;;
77451;SDS011;66537;52.370;4.832;2023-04-16T09:19:17;22.15;;;8.80;;
77451;SDS011;66537;52.370;4.832;2023-04-16T09:21:45;24.35;;;9.23;;
77451;SDS011;66537;52.370;4.832;2023-04-16T09:24:11;27.20;;;9.38;;
77451;SDS011;66537;52.370;4.832;2023-04-16T09:26:37;21.58;;;7.63;;
77451;SDS011;66537;52.370;4.832;2023-04-16T09:29:02;24.98;;;8.52;;
77451;SDS011;66537;52.370;4.832;2023-04-16T09:31:28;23.83;;;8.32;;
77451;SDS011;66537;52.370;4.832;2023-04-16T09:34:04;22.75;;;8.15;;
77451;SDS011;66537;52.370;4.832;2023-04-16T09:36:32;22.45;;;8.60;;
77451;SDS011;66537;52.370;4.832;2023-04-16T09:38:59;24.42;;;8.60;;
77451;SDS011;66537;52.370;4.832;2023-04-16T09:41:26;28.55;;;8.60;;
77451;SDS011;66537;52.370;4.832;2023-04-16T09:43:53;27.48;;;9.23;;
77451;SDS011;66537;52.370;4.832;2023-04-16T09:46:29;25.65;;;9.60;;
77451;SDS011;66537;52.370;4.832;2023-04-16T09:48:56;30.40;;;10.98;;
77451;SDS011;66537;52.370;4.832;2023-04-16T09:51:21;24.88;;;9.93;;
77451;SDS011;66537;52.370;4.832;2023-04-16T09:53:47;23.27;;;9.50;;
77451;SDS011;66537;52.370;4.832;2023-04-16T09:56:16;26.10;;;10.25;;
77451;SDS011;66537;52.370;4.832;2023-04-16T09:58:41;30.57;;;10.53;;
77451;SDS011;66537;52.370;4.832;2023-04-16T10:01:08;25.45;;;10.60;;
77451;SDS011;66537;52.370;4.832;2023-04-16T10:03:35;29.45;;;10.27;;
77451;SDS011;66537;52.370;4.832;2023-04-16T10:06:15;31.48;;;10.15;;
77451;SDS011;66537;52.370;4.832;2023-04-16T10:08:43;21.17;;;8.75;;
77451;SDS011;66537;52.370;4.832;2023-04-16T10:11:11;27.90;;;9.65;;
77451;SDS011;66537;52.370;4.832;2023-04-16T10:13:36;21.38;;;7.53;;
77451;SDS011;66537;52.370;4.832;2023-04-16T10:16:02;28.30;;;9.35;;
77451;SDS011;66537;52.370;4.832;2023-04-16T10:18:28;25.02;;;9.23;;
77451;SDS011;66537;52.370;4.832;2023-04-16T10:20:55;22.83;;;8.55;;
77451;SDS011;66537;52.370;4.832;2023-04-16T10:23:21;22.42;;;8.23;;
77451;SDS011;66537;52.370;4.832;2023-04-16T10:25:47;20.27;;;7.50;;
77451;SDS011;66537;52.370;4.832;2023-04-16T10:28:14;24.10;;;8.73;;
77451;SDS011;66537;52.370;4.832;2023-04-16T10:30:40;30.67;;;7.63;;
77451;SDS011;66537;52.370;4.832;2023-04-16T10:33:16;22.52;;;7.78;;
77451;SDS011;66537;52.370;4.832;2023-04-16T10:35:45;20.55;;;6.88;;
77451;SDS011;66537;52.370;4.832;2023-04-16T10:38:24;21.00;;;7.40;;
77451;SDS011;66537;52.370;4.832;2023-04-16T10:40:57;21.58;;;7.75;;
77451;SDS011;66537;52.370;4.832;2023-04-16T10:43:23;19.85;;;7.60;;
77451;SDS011;66537;52.370;4.832;2023-04-16T10:45:49;21.88;;;7.93;;
77451;SDS011;66537;52.370;4.832;2023-04-16T10:48:17;20.38;;;7.65;;
77451;SDS011;66537;52.370;4.832;2023-04-16T10:50:42;21.25;;;8.27;;
77451;SDS011;66537;52.370;4.832;2023-04-16T10:53:21;22.35;;;9.10;;
77451;SDS011;66537;52.370;4.832;2023-04-16T10:55:55;21.88;;;7.78;;
77451;SDS011;66537;52.370;4.832;2023-04-16T10:58:40;25.08;;;8.20;;
77451;SDS011;66537;52.370;4.832;2023-04-16T11:01:10;24.52;;;7.88;;
77451;SDS011;66537;52.370;4.832;2023-04-16T11:03:41;24.42;;;8.90;;
77451;SDS011;66537;52.370;4.832;2023-04-16T11:06:11;22.00;;;7.85;;
77451;SDS011;66537;52.370;4.832;2023-04-16T11:08:38;23.17;;;7.95;;
77451;SDS011;66537;52.370;4.832;2023-04-16T11:11:05;20.08;;;7.75;;
77451;SDS011;66537;52.370;4.832;2023-04-16T11:13:30;25.77;;;8.93;;
77451;SDS011;66537;52.370;4.832;2023-04-16T11:15:56;24.30;;;8.85;;
77451;SDS011;66537;52.370;4.832;2023-04-16T11:18:23;20.02;;;8.48;;
77451;SDS011;66537;52.370;4.832;2023-04-16T11:20:49;22.77;;;8.68;;
77451;SDS011;66537;52.370;4.832;2023-04-16T11:23:15;28.23;;;9.45;;
77451;SDS011;66537;52.370;4.832;2023-04-16T11:25:40;25.90;;;9.03;;
77451;SDS011;66537;52.370;4.832;2023-04-16T11:28:06;23.80;;;8.53;;
77451;SDS011;66537;52.370;4.832;2023-04-16T11:30:31;24.70;;;8.90;;
77451;SDS011;66537;52.370;4.832;2023-04-16T11:33:05;24.23;;;9.10;;
77451;SDS011;66537;52.370;4.832;2023-04-16T11:35:32;28.67;;;10.85;;
77451;SDS011;66537;52.370;4.832;2023-04-16T11:37:58;26.25;;;10.27;;
77451;SDS011;66537;52.370;4.832;2023-04-16T11:40:23;26.20;;;10.40;;
77451;SDS011;66537;52.370;4.832;2023-04-16T11:42:53;23.85;;;9.40;;
77451;SDS011;66537;52.370;4.832;2023-04-16T11:45:18;29.50;;;11.07;;
77451;SDS011;66537;52.370;4.832;2023-04-16T11:47:47;37.00;;;13.00;;
77451;SDS011;66537;52.370;4.832;2023-04-16T11:50:20;32.20;;;12.00;;
77451;SDS011;66537;52.370;4.832;2023-04-16T11:55:12;32.78;;;11.85;;
77451;SDS011;66537;52.370;4.832;2023-04-16T11:57:38;31.35;;;10.90;;
77451;SDS011;66537;52.370;4.832;2023-04-16T12:00:03;33.23;;;11.70;;
77451;SDS011;66537;52.370;4.832;2023-04-16T12:05:06;31.95;;;10.25;;
77451;SDS011;66537;52.370;4.832;2023-04-16T12:08:06;32.22;;;10.32;;
77451;SDS011;66537;52.370;4.832;2023-04-16T12:10:34;29.75;;;10.50;;
77451;SDS011;66537;52.370;4.832;2023-04-16T12:15:46;29.55;;;10.98;;
77451;SDS011;66537;52.370;4.832;2023-04-16T12:18:15;25.73;;;10.05;;
77451;SDS011;66537;52.370;4.832;2023-04-16T12:20:42;32.08;;;10.23;;
77451;SDS011;66537;52.370;4.832;2023-04-16T12:23:08;31.00;;;10.20;;
77451;SDS011;66537;52.370;4.832;2023-04-16T12:25:35;31.15;;;11.77;;
77451;SDS011;66537;52.370;4.832;2023-04-16T12:28:00;31.50;;;12.23;;
77451;SDS011;66537;52.370;4.832;2023-04-16T12:30:26;30.98;;;11.50;;
77451;SDS011;66537;52.370;4.832;2023-04-16T12:32:53;28.98;;;10.93;;
77451;SDS011;66537;52.370;4.832;2023-04-16T12:35:38;35.58;;;9.88;;
77451;SDS011;66537;52.370;4.832;2023-04-16T12:38:06;24.95;;;9.50;;
77451;SDS011;66537;52.370;4.832;2023-04-16T12:40:32;27.42;;;9.25;;
77451;SDS011;66537;52.370;4.832;2023-04-16T12:42:57;25.88;;;9.18;;
77451;SDS011;66537;52.370;4.832;2023-04-16T12:45:23;26.70;;;8.63;;
77451;SDS011;66537;52.370;4.832;2023-04-16T12:47:48;25.30;;;9.05;;
77451;SDS011;66537;52.370;4.832;2023-04-16T12:50:14;27.58;;;8.65;;
77451;SDS011;66537;52.370;4.832;2023-04-16T12:52:39;25.70;;;9.15;;
77451;SDS011;66537;52.370;4.832;2023-04-16T12:55:05;26.20;;;9.55;;
77451;SDS011;66537;52.370;4.832;2023-04-16T12:57:31;30.02;;;9.18;;
77451;SDS011;66537;52.370;4.832;2023-04-16T12:59:56;32.23;;;8.63;;
77451;SDS011;66537;52.370;4.832;2023-04-16T13:02:23;26.60;;;8.52;;
77451;SDS011;66537;52.370;4.832;2023-04-16T13:04:49;25.48;;;9.20;;
77451;SDS011;66537;52.370;4.832;2023-04-16T13:07:15;29.02;;;8.68;;
77451;SDS011;66537;52.370;4.832;2023-04-16T13:09:41;23.88;;;8.50;;
77451;SDS011;66537;52.370;4.832;2023-04-16T13:12:07;27.75;;;8.82;;
77451;SDS011;66537;52.370;4.832;2023-04-16T13:14:32;28.23;;;8.80;;
77451;SDS011;66537;52.370;4.832;2023-04-16T13:16:58;26.35;;;9.77;;
77451;SDS011;66537;52.370;4.832;2023-04-16T13:19:23;27.60;;;7.80;;
77451;SDS011;66537;52.370;4.832;2023-04-16T13:21:48;25.30;;;8.37;;
77451;SDS011;66537;52.370;4.832;2023-04-16T13:24:14;26.15;;;8.55;;
77451;SDS011;66537;52.370;4.832;2023-04-16T13:26:39;32.22;;;12.20;;
77451;SDS011;66537;52.370;4.832;2023-04-16T13:29:05;22.95;;;9.65;;
77451;SDS011;66537;52.370;4.832;2023-04-16T13:31:30;23.23;;;8.10;;
77451;SDS011;66537;52.370;4.832;2023-04-16T13:33:55;23.90;;;9.00;;
77451;SDS011;66537;52.370;4.832;2023-04-16T13:36:21;24.60;;;8.70;;
77451;SDS011;66537;52.370;4.832;2023-04-16T13:38:46;28.50;;;9.25;;
77451;SDS011;66537;52.370;4.832;2023-04-16T13:41:11;30.40;;;10.82;;
77451;SDS011;66537;52.370;4.832;2023-04-16T13:43:37;27.70;;;8.97;;
77451;SDS011;66537;52.370;4.832;2023-04-16T13:46:02;31.17;;;8.93;;
77451;SDS011;66537;52.370;4.832;2023-04-16T13:48:27;30.03;;;9.63;;
77451;SDS011;66537;52.370;4.832;2023-04-16T13:50:53;31.08;;;10.35;;
77451;SDS011;66537;52.370;4.832;2023-04-16T13:53:18;24.67;;;10.00;;
77451;SDS011;66537;52.370;4.832;2023-04-16T13:55:44;34.53;;;12.32;;
77451;SDS011;66537;52.370;4.832;2023-04-16T13:58:09;30.27;;;11.20;;
77451;SDS011;66537;52.370;4.832;2023-04-16T14:00:35;30.10;;;10.05;;
77451;SDS011;66537;52.370;4.832;2023-04-16T14:03:01;31.83;;;12.73;;
77451;SDS011;66537;52.370;4.832;2023-04-16T14:05:26;30.35;;;12.25;;
77451;SDS011;66537;52.370;4.832;2023-04-16T14:07:52;27.20;;;10.57;;
77451;SDS011;66537;52.370;4.832;2023-04-16T14:10:17;33.80;;;12.07;;
77451;SDS011;66537;52.370;4.832;2023-04-16T14:12:43;30.75;;;10.93;;
77451;SDS011;66537;52.370;4.832;2023-04-16T14:15:09;27.48;;;11.23;;
77451;SDS011;66537;52.370;4.832;2023-04-16T14:17:35;27.42;;;10.98;;
77451;SDS011;66537;52.370;4.832;2023-04-16T14:20:03;30.20;;;11.43;;
77451;SDS011;66537;52.370;4.832;2023-04-16T14:22:29;31.27;;;11.05;;
77451;SDS011;66537;52.370;4.832;2023-04-16T14:24:55;27.38;;;11.07;;
77451;SDS011;66537;52.370;4.832;2023-04-16T14:27:20;34.43;;;11.93;;
77451;SDS011;66537;52.370;4.832;2023-04-16T14:29:46;31.83;;;11.85;;
77451;SDS011;66537;52.370;4.832;2023-04-16T14:32:11;27.40;;;11.07;;
77451;SDS011;66537;52.370;4.832;2023-04-16T14:34:37;26.25;;;10.88;;